Time;durP1;ratioP1;P1;durP2;ratioP2;P2;SDS_P1;SDS_P2;PMS_P1;PMS_P2;Temp;Humidity;BMP_temperature;BMP_pressure;BME280_temperature;BME280_humidity;BME280_pressure;Samples;Min_cycle;Max_cycle;Signal;HPM_P1;HPM_P2
2021/03/08 00:00:00;;;;;;;9.67;5.13;;;;;;;2.49;76.35;98404.22;5031439;28;20202;-76
2021/03/08 00:02:27;;;;;;;9.03;5.10;;;;;;;2.65;74.48;98424.72;5030748;28;20693;-77
2021/03/08 00:04:54;;;;;;;11.43;5.07;;;;;;;2.69;73.89;98420.84;5033079;28;20202;-75
2021/03/08 00:07:21;;;;;;;9.67;4.57;;;;;;;2.65;73.69;98422.09;5031121;28;20210;-75
2021/03/08 00:09:47;;;;;;;6.87;4.53;;;;;;;2.45;74.37;98417.81;5031398;28;20230;-76
2021/03/08 00:12:15;;;;;;;8.83;5.10;;;;;;;2.42;74.42;98423.34;5032261;28;20240;-76
2021/03/08 00:14:42;;;;;;;9.60;5.10;;;;;;;2.49;73.61;98422.66;5030852;28;20247;-76
2021/03/08 00:17:10;;;;;;;10.97;4.67;;;;;;;2.58;72.97;98427.09;5032649;28;20699;-76
2021/03/08 00:19:37;;;;;;;9.07;4.73;;;;;;;2.45;72.76;98423.09;5023229;28;20218;-76
2021/03/08 00:22:04;;;;;;;9.37;5.17;;;;;;;2.41;74.45;98417.28;5031447;28;20203;-76
2021/03/08 00:24:30;;;;;;;8.27;4.53;;;;;;;2.39;75.80;98413.94;5030666;28;20754;-75
2021/03/08 00:26:57;;;;;;;11.03;4.83;;;;;;;2.37;77.96;98413.25;5023641;28;20682;-76
2021/03/08 00:29:25;;;;;;;8.87;4.60;;;;;;;2.33;77.99;98418.91;5036185;28;20236;-76
2021/03/08 00:31:52;;;;;;;10.03;4.73;;;;;;;2.06;78.92;98406.47;5034844;28;20202;-77
2021/03/08 00:34:19;;;;;;;6.87;4.17;;;;;;;2.22;76.03;98417.28;5032641;28;20261;-76
2021/03/08 00:36:46;;;;;;;11.10;4.73;;;;;;;2.30;76.16;98416.59;5037315;28;20206;-75
2021/03/08 00:39:13;;;;;;;7.50;4.43;;;;;;;2.14;78.01;98406.59;5031998;28;20288;-76
2021/03/08 00:41:39;;;;;;;9.07;4.57;;;;;;;2.14;77.47;98406.59;5031168;28;20606;-75
2021/03/08 00:44:06;;;;;;;14.43;5.20;;;;;;;2.13;77.58;98404.13;5029672;28;20616;-76
2021/03/08 00:46:34;;;;;;;8.13;4.80;;;;;;;1.91;79.95;98402.59;5022992;28;20539;-75
2021/03/08 00:49:01;;;;;;;8.43;4.70;;;;;;;1.92;79.76;98404.25;5029673;28;20233;-75
2021/03/08 00:51:28;;;;;;;8.17;4.27;;;;;;;2.10;77.69;98401.75;5034601;28;20220;-75
2021/03/08 00:53:55;;;;;;;7.33;3.93;;;;;;;2.14;76.77;98396.06;5035032;28;20202;-75
2021/03/08 00:56:22;;;;;;;8.00;4.60;;;;;;;2.09;76.80;98402.75;5034311;28;20218;-75
2021/03/08 00:58:48;;;;;;;9.07;4.37;;;;;;;2.15;74.17;98394.28;5033050;28;20275;-76
2021/03/08 01:01:15;;;;;;;7.10;4.57;;;;;;;2.24;73.51;98402.16;5034288;28;20214;-75
2021/03/08 01:03:43;;;;;;;6.50;4.10;;;;;;;2.14;74.91;98403.97;5032614;28;20202;-76
2021/03/08 01:06:09;;;;;;;8.53;5.10;;;;;;;2.04;77.18;98395.25;5034455;28;20217;-76
2021/03/08 01:08:36;;;;;;;7.97;4.47;;;;;;;2.12;76.76;98400.66;5029883;28;20593;-77
2021/03/08 01:11:03;;;;;;;7.93;4.30;;;;;;;2.04;77.11;98397.06;5034754;28;20641;-76
2021/03/08 01:13:30;;;;;;;7.90;4.20;;;;;;;1.87;77.56;98395.09;5034415;28;20207;-76
2021/03/08 01:15:57;;;;;;;8.23;4.33;;;;;;;1.88;78.79;98391.50;5029558;28;20205;-76
2021/03/08 01:18:24;;;;;;;7.23;4.20;;;;;;;1.95;77.80;98397.88;5033850;28;20268;-76
2021/03/08 01:20:52;;;;;;;8.13;4.37;;;;;;;1.97;77.81;98393.28;5034334;28;20206;-76
2021/03/08 01:23:19;;;;;;;9.37;4.87;;;;;;;1.77;79.43;98395.09;5034343;28;20210;-76
2021/03/08 01:25:46;;;;;;;7.97;4.20;;;;;;;1.97;77.79;98396.78;5033422;28;20202;-75
2021/03/08 01:28:12;;;;;;;8.57;4.70;;;;;;;1.92;78.41;98391.09;5033392;28;20240;-75
2021/03/08 01:30:41;;;;;;;7.33;4.00;;;;;;;1.73;79.80;98390.25;5034232;28;20214;-76
2021/03/08 01:33:09;;;;;;;10.10;5.10;;;;;;;1.86;78.90;98389.00;5030331;28;20724;-76
2021/03/08 01:35:36;;;;;;;11.03;4.77;;;;;;;1.77;79.55;98387.19;5033642;28;20202;-76
2021/03/08 01:38:04;;;;;;;8.33;4.70;;;;;;;1.79;80.76;98379.19;5033965;28;20214;-77
2021/03/08 01:40:33;;;;;;;9.77;4.60;;;;;;;1.90;78.40;98373.78;5032234;28;20295;-76
2021/03/08 01:43:00;;;;;;;8.83;4.70;;;;;;;1.87;77.47;98380.16;5033029;28;20206;-76
2021/03/08 01:45:27;;;;;;;9.93;5.03;;;;;;;1.76;79.19;98371.53;5032835;28;20206;-76
2021/03/08 01:47:53;;;;;;;8.43;4.33;;;;;;;1.79;78.47;98380.00;5033506;28;20202;-75
2021/03/08 01:50:24;;;;;;;10.03;4.53;;;;;;;1.77;77.25;98376.69;5033832;28;20244;-76
2021/03/08 01:52:51;;;;;;;9.23;5.20;;;;;;;1.74;77.98;98370.88;5033887;28;20212;-76
2021/03/08 01:55:20;;;;;;;10.87;5.20;;;;;;;1.63;77.87;98366.56;5033518;28;20212;-75
2021/03/08 01:57:47;;;;;;;7.67;4.67;;;;;;;1.74;77.79;98371.69;5032241;28;20202;-76
2021/03/08 02:00:15;;;;;;;7.30;5.00;;;;;;;1.70;77.82;98372.94;5037042;28;20202;-76
2021/03/08 02:02:42;;;;;;;9.97;5.40;;;;;;;1.60;78.69;98380.00;5032871;28;20281;-75
2021/03/08 02:05:13;;;;;;;9.03;5.27;;;;;;;1.51;80.46;98372.91;5033486;28;20283;-76
2021/03/08 02:07:40;;;;;;;11.77;5.57;;;;;;;1.44;80.72;98381.47;5032603;28;20198;-75
2021/03/08 02:10:08;;;;;;;9.03;4.83;;;;;;;1.51;80.58;98383.44;5034287;28;20214;-76
2021/03/08 02:12:48;;;;;;;10.83;5.40;;;;;;;1.58;80.20;98375.84;5034178;28;20202;-75
2021/03/08 02:15:29;;;;;;;10.17;5.17;;;;;;;1.69;79.38;98383.59;5033482;28;20210;-75
2021/03/08 02:18:03;;;;;;;12.80;5.53;;;;;;;1.64;80.04;98384.00;5032457;28;20583;-76
2021/03/08 02:20:53;;;;;;;10.27;5.23;;;;;;;1.62;81.29;98383.31;5033647;28;20206;-77
2021/03/08 02:23:56;;;;;;;10.50;5.40;;;;;;;1.73;80.28;98382.38;5032623;28;20305;-76
2021/03/08 02:26:41;;;;;;;11.17;5.83;;;;;;;1.54;83.04;98371.81;5007564;28;20630;-76
2021/03/08 02:30:05;;;;;;;11.53;6.40;;;;;;;1.67;82.41;98372.38;5034350;28;20733;-76
2021/03/08 02:32:36;;;;;;;10.43;5.63;;;;;;;1.99;79.99;98375.59;5033661;28;20205;-76
2021/03/08 02:35:09;;;;;;;12.10;6.20;;;;;;;2.02;79.56;98370.88;5033008;28;20210;-75
2021/03/08 02:37:41;;;;;;;13.60;6.30;;;;;;;2.05;78.56;98378.50;5033877;28;20690;-76
2021/03/08 02:40:13;;;;;;;10.70;5.50;;;;;;;2.06;79.40;98369.63;5034609;28;20675;-75
2021/03/08 02:42:43;;;;;;;9.57;5.43;;;;;;;2.05;80.11;98367.13;5032866;28;20202;-76
2021/03/08 02:45:13;;;;;;;9.50;6.07;;;;;;;1.95;80.94;98364.50;5036124;28;20670;-76
2021/03/08 02:47:45;;;;;;;11.87;6.67;;;;;;;1.70;83.33;98362.44;5032914;28;20207;-76
2021/03/08 02:50:13;;;;;;;11.53;5.93;;;;;;;1.79;82.85;98356.31;5028400;28;20923;-75
2021/03/08 02:52:44;;;;;;;13.93;6.50;;;;;;;1.82;82.09;98371.84;5029064;28;20214;-76
2021/03/08 02:55:13;;;;;;;11.80;5.97;;;;;;;1.75;82.72;98364.63;5030962;28;20214;-75
2021/03/08 02:57:42;;;;;;;12.70;6.53;;;;;;;1.61;83.66;98365.03;5031835;28;20198;-76
2021/03/08 03:00:11;;;;;;;12.57;6.77;;;;;;;1.41;88.42;98355.44;5032388;28;20214;-76
2021/03/08 03:02:40;;;;;;;15.93;6.73;;;;;;;1.68;88.37;98350.38;5031878;28;20206;-76
2021/03/08 03:05:09;;;;;;;13.00;6.73;;;;;;;1.69;88.12;98354.66;5031861;28;20716;-75
2021/03/08 03:07:38;;;;;;;11.23;7.00;;;;;;;1.55;88.34;98349.78;5032360;28;20213;-76
2021/03/08 03:10:06;;;;;;;11.40;6.93;;;;;;;1.43;89.77;98351.72;5032287;28;20313;-75
2021/03/08 03:12:35;;;;;;;10.73;6.70;;;;;;;1.56;88.66;98359.34;5031337;28;20263;-75
2021/03/08 03:15:04;;;;;;;16.10;7.13;;;;;;;1.49;89.58;98361.69;5031300;28;20234;-75
2021/03/08 03:17:33;;;;;;;11.87;7.07;;;;;;;1.38;90.47;98361.00;5031823;28;20310;-75
2021/03/08 03:20:01;;;;;;;11.77;6.03;;;;;;;1.28;92.50;98358.31;5032101;28;20236;-76
2021/03/08 03:22:29;;;;;;;13.67;7.53;;;;;;;1.24;92.75;98356.94;5032934;28;20578;-76
2021/03/08 03:24:57;;;;;;;12.80;6.67;;;;;;;1.40;91.59;98362.53;5038284;28;20216;-75
2021/03/08 03:27:25;;;;;;;11.83;6.70;;;;;;;1.31;91.58;98357.22;5033007;28;20202;-76
2021/03/08 03:29:52;;;;;;;12.27;6.60;;;;;;;1.32;91.01;98366.78;5032439;28;20742;-76
2021/03/08 03:32:20;;;;;;;12.47;7.40;;;;;;;1.22;92.67;98364.13;5031636;28;20210;-76
2021/03/08 03:34:48;;;;;;;15.57;7.13;;;;;;;1.20;92.53;98373.09;5031488;28;20542;-77
2021/03/08 03:37:18;;;;;;;11.60;6.47;;;;;;;1.22;93.83;98379.06;5031304;28;20206;-76
2021/03/08 03:39:46;;;;;;;14.17;7.33;;;;;;;1.08;95.11;98379.44;5031739;28;20226;-75
2021/03/08 03:42:13;;;;;;;13.70;6.80;;;;;;;1.18;95.08;98378.50;5031420;28;20210;-75
2021/03/08 03:44:39;;;;;;;13.53;7.13;;;;;;;1.20;94.57;98381.00;5032268;28;20209;-76
2021/03/08 03:47:06;;;;;;;11.97;7.17;;;;;;;1.03;95.33;98382.44;5031550;28;20282;-76
2021/03/08 03:49:33;;;;;;;15.87;6.53;;;;;;;1.16;94.91;98385.69;5030871;28;20321;-76
2021/03/08 03:52:00;;;;;;;14.63;7.27;;;;;;;1.08;95.77;98389.94;5031531;28;20206;-75
2021/03/08 03:54:27;;;;;;;12.27;6.97;;;;;;;0.91;96.17;98390.56;5031491;28;20574;-76
2021/03/08 03:56:57;;;;;;;14.73;7.13;;;;;;;0.93;97.12;98393.91;5031002;28;20233;-75
2021/03/08 03:59:24;;;;;;;13.23;7.27;;;;;;;1.02;97.33;98393.13;5029191;28;20222;-76
2021/03/08 04:01:55;;;;;;;14.23;7.97;;;;;;;1.19;95.84;98400.38;5031386;28;20247;-75
2021/03/08 04:04:26;;;;;;;10.00;6.17;;;;;;;1.06;96.55;98402.38;5031225;28;20860;-76
2021/03/08 04:06:53;;;;;;;12.57;7.30;;;;;;;1.18;95.98;98399.50;5031500;28;20655;-76
2021/03/08 04:09:22;;;;;;;18.53;7.97;;;;;;;1.23;95.23;98410.47;5030668;28;20230;-76
2021/03/08 04:11:52;;;;;;;15.03;7.87;;;;;;;1.04;97.42;98415.66;5030785;28;20202;-76
2021/03/08 04:14:22;;;;;;;11.97;7.20;;;;;;;1.37;94.72;98410.09;5030737;28;20666;-75
2021/03/08 04:16:50;;;;;;;14.90;7.87;;;;;;;1.21;96.97;98415.03;5031145;28;20213;-76
2021/03/08 04:19:19;;;;;;;13.93;7.33;;;;;;;1.38;94.08;98419.66;5030922;28;20240;-75
2021/03/08 04:21:48;;;;;;;14.37;7.23;;;;;;;1.31;93.97;98428.19;5031065;28;20210;-76
2021/03/08 04:24:15;;;;;;;12.23;6.93;;;;;;;1.15;95.77;98422.59;5033539;28;20234;-75
2021/03/08 04:26:42;;;;;;;14.83;7.83;;;;;;;1.04;99.11;98423.56;5035045;28;20202;-76
2021/03/08 04:29:09;;;;;;;16.27;7.70;;;;;;;0.86;100.00;98424.25;5033516;28;20328;-76
2021/03/08 04:31:38;;;;;;;15.50;7.97;;;;;;;0.98;100.00;98431.13;5037197;28;20202;-76
2021/03/08 04:34:05;;;;;;;12.03;6.93;;;;;;;0.86;100.00;98430.38;5034995;28;20213;-76
2021/03/08 04:36:32;;;;;;;14.77;7.37;;;;;;;1.04;99.47;98427.97;5035341;28;20255;-75
2021/03/08 04:38:59;;;;;;;13.63;7.80;;;;;;;1.02;98.16;98435.16;5035188;28;20218;-76
2021/03/08 04:41:27;;;;;;;14.10;7.47;;;;;;;0.89;100.00;98434.53;5034317;28;20206;-75
2021/03/08 04:43:54;;;;;;;13.53;7.70;;;;;;;0.89;100.00;98437.16;5038409;28;20202;-75
2021/03/08 04:46:22;;;;;;;16.67;8.53;;;;;;;0.84;100.00;98434.09;5032534;28;20206;-75
2021/03/08 04:48:50;;;;;;;16.23;7.70;;;;;;;0.79;100.00;98442.38;5034733;28;20233;-76
2021/03/08 04:51:18;;;;;;;14.93;8.00;;;;;;;0.64;100.00;98441.03;5035045;28;20629;-76
2021/03/08 04:53:45;;;;;;;14.00;8.07;;;;;;;0.50;100.00;98445.75;5034900;28;20560;-76
2021/03/08 04:56:12;;;;;;;15.37;7.67;;;;;;;0.85;100.00;98441.84;5032597;28;20201;-75
2021/03/08 04:58:39;;;;;;;15.33;7.70;;;;;;;0.77;100.00;98452.16;5036361;28;20264;-76
2021/03/08 05:01:06;;;;;;;15.87;8.03;;;;;;;0.82;100.00;98455.22;5036035;28;20643;-76
2021/03/08 05:03:35;;;;;;;12.47;7.20;;;;;;;0.60;100.00;98454.53;5035335;28;20210;-76
2021/03/08 05:06:05;;;;;;;14.10;7.93;;;;;;;0.74;100.00;98455.06;5036224;28;20256;-75
2021/03/08 05:08:33;;;;;;;16.40;8.43;;;;;;;0.87;100.00;98447.78;5035529;28;20682;-76
2021/03/08 05:11:01;;;;;;;14.10;7.60;;;;;;;0.71;100.00;98454.50;5036317;28;20206;-76
2021/03/08 05:13:30;;;;;;;13.87;8.10;;;;;;;0.76;100.00;98458.38;5035520;28;20210;-76
2021/03/08 05:15:57;;;;;;;15.37;8.00;;;;;;;0.66;100.00;98457.47;5036039;28;20201;-76
2021/03/08 05:18:24;;;;;;;13.77;7.30;;;;;;;0.74;100.00;98465.56;5028371;28;20702;-76
2021/03/08 05:20:51;;;;;;;17.00;7.93;;;;;;;0.74;100.00;98457.69;5035793;28;20209;-75
2021/03/08 05:23:19;;;;;;;18.27;8.43;;;;;;;0.60;100.00;98459.78;5028141;28;20549;-75
2021/03/08 05:25:46;;;;;;;23.67;9.60;;;;;;;0.68;100.00;98457.34;5041706;28;20206;-75
2021/03/08 05:28:13;;;;;;;15.57;7.97;;;;;;;0.62;100.00;98458.69;5043299;28;20230;-75
2021/03/08 05:30:40;;;;;;;13.67;7.17;;;;;;;0.57;100.00;98460.06;5035398;28;20202;-76
2021/03/08 05:33:11;;;;;;;15.83;8.47;;;;;;;0.44;100.00;98456.78;5035156;28;20206;-76
2021/03/08 05:35:38;;;;;;;18.77;8.97;;;;;;;0.55;100.00;98461.97;5026790;28;20571;-75
2021/03/08 05:38:06;;;;;;;16.53;8.90;;;;;;;0.66;100.00;98459.28;5035294;28;20308;-76
2021/03/08 05:40:46;;;;;;;16.13;8.90;;;;;;;0.68;100.00;98463.47;5034885;28;20259;-76
2021/03/08 05:43:15;;;;;;;15.53;8.37;;;;;;;0.72;100.00;98456.97;5026842;28;20248;-76
2021/03/08 05:45:51;;;;;;;16.93;8.67;;;;;;;0.57;100.00;98468.75;5035256;28;20331;-76
2021/03/08 05:48:35;;;;;;;16.97;9.10;;;;;;;0.45;100.00;98468.94;5034700;28;20236;-76
2021/03/08 05:51:36;;;;;;;17.57;8.93;;;;;;;0.47;100.00;98473.09;5030486;28;20204;-75
2021/03/08 05:54:24;;;;;;;16.20;8.50;;;;;;;0.53;100.00;98464.75;5029221;28;20582;-76
2021/03/08 05:57:07;;;;;;;17.70;8.83;;;;;;;0.59;100.00;98479.97;5017084;28;20266;-76
2021/03/08 05:59:52;;;;;;;26.57;12.30;;;;;;;0.53;100.00;98474.41;5035513;28;20214;-77
2021/03/08 06:03:05;;;;;;;21.67;10.80;;;;;;;0.64;100.00;98475.16;5035479;28;20205;-77
2021/03/08 06:06:26;;;;;;;16.60;9.33;;;;;;;0.48;100.00;98474.78;5035055;28;20225;-77
2021/03/08 06:09:22;;;;;;;21.87;10.03;;;;;;;0.58;100.00;98474.84;5037986;28;20230;-76
2021/03/08 06:11:54;;;;;;;17.57;8.40;;;;;;;0.58;100.00;98473.06;5030969;28;20623;-76
2021/03/08 06:14:26;;;;;;;17.80;9.73;;;;;;;0.65;100.00;98478.59;5034827;28;20194;-75
2021/03/08 06:16:55;;;;;;;18.50;9.17;;;;;;;0.64;100.00;98477.81;5038354;28;20210;-77
2021/03/08 06:19:23;;;;;;;18.27;10.33;;;;;;;0.66;100.00;98467.16;5040243;28;20237;-75
2021/03/08 06:21:50;;;;;;;18.63;9.20;;;;;;;0.79;100.00;98476.50;5040203;28;20210;-75
2021/03/08 06:24:17;;;;;;;17.20;9.13;;;;;;;0.98;100.00;98475.78;5036015;28;20548;-74
2021/03/08 06:26:46;;;;;;;23.07;10.50;;;;;;;1.02;100.00;98474.56;5034461;28;20205;-76
2021/03/08 06:29:13;;;;;;;21.23;10.13;;;;;;;1.03;100.00;98463.09;5033008;28;20230;-77
2021/03/08 06:31:43;;;;;;;22.10;9.57;;;;;;;1.16;100.00;98474.19;5031713;28;20302;-74
2021/03/08 06:34:11;;;;;;;18.13;9.00;;;;;;;1.16;100.00;98477.69;5034578;28;20194;-76
2021/03/08 06:36:38;;;;;;;21.17;9.03;;;;;;;1.17;100.00;98483.78;5032943;28;20233;-77
2021/03/08 06:39:06;;;;;;;23.73;10.33;;;;;;;1.21;100.00;98482.53;5034567;28;20214;-77
2021/03/08 06:41:33;;;;;;;23.53;9.37;;;;;;;1.33;100.00;98486.75;5035724;28;20705;-74
2021/03/08 06:44:02;;;;;;;26.80;10.47;;;;;;;1.43;100.00;98485.81;5029070;28;20690;-76
2021/03/08 06:46:29;;;;;;;18.37;9.30;;;;;;;1.51;100.00;98493.88;5029028;28;20222;-79
2021/03/08 06:48:57;;;;;;;17.33;9.33;;;;;;;1.64;100.00;98497.09;5035341;28;20238;-74
2021/03/08 06:51:24;;;;;;;18.77;9.43;;;;;;;1.65;100.00;98504.03;5030105;28;20206;-78
2021/03/08 06:53:51;;;;;;;21.90;9.40;;;;;;;1.79;100.00;98508.91;5031795;28;20206;-76
2021/03/08 06:56:19;;;;;;;29.43;10.03;;;;;;;1.93;100.00;98508.53;5044403;28;20214;-76
2021/03/08 06:59:02;;;;;;;20.63;10.50;;;;;;;1.97;100.00;98507.31;5041494;28;20210;-75
2021/03/08 07:01:31;;;;;;;18.90;10.03;;;;;;;2.17;100.00;98513.44;5036689;28;20209;-76
2021/03/08 07:04:02;;;;;;;18.87;10.03;;;;;;;2.31;100.00;98513.03;5028179;28;20210;-77
2021/03/08 07:06:32;;;;;;;20.10;10.03;;;;;;;2.43;100.00;98510.13;5040145;28;20675;-77
2021/03/08 07:09:07;;;;;;;24.00;10.17;;;;;;;2.57;99.29;98508.88;5031217;28;20349;-76
2021/03/08 07:11:34;;;;;;;21.87;9.80;;;;;;;2.70;97.86;98504.16;5032634;28;20225;-74
2021/03/08 07:14:01;;;;;;;19.43;10.13;;;;;;;2.83;96.80;98502.91;5027660;28;20259;-74
2021/03/08 07:16:35;;;;;;;17.23;9.43;;;;;;;2.93;95.48;98506.34;5029570;28;20301;-75
2021/03/08 07:19:03;;;;;;;21.87;10.47;;;;;;;3.04;94.08;98514.09;5031284;28;20233;-77
2021/03/08 07:21:30;;;;;;;17.43;9.67;;;;;;;3.19;92.79;98510.03;5043529;28;20344;-77
2021/03/08 07:24:10;;;;;;;18.93;9.80;;;;;;;3.31;90.90;98510.72;5042632;28;20289;-86
2021/03/08 07:26:37;;;;;;;18.77;9.97;;;;;;;3.17;90.52;98514.66;5036534;28;20198;-77
2021/03/08 07:29:11;;;;;;;23.17;9.77;;;;;;;3.45;90.07;98508.44;5032561;28;20851;-76
2021/03/08 07:31:39;;;;;;;21.83;9.87;;;;;;;3.60;88.58;98514.91;5028948;28;20239;-76
2021/03/08 07:34:09;;;;;;;19.83;9.30;;;;;;;3.54;84.87;98526.03;5023250;28;20212;-76
2021/03/08 07:36:37;;;;;;;21.70;10.23;;;;;;;3.37;85.32;98541.78;5029782;28;20205;-76
2021/03/08 07:39:14;;;;;;;17.33;9.73;;;;;;;3.66;85.32;98535.44;5026330;28;20223;-75
2021/03/08 07:41:54;;;;;;;17.70;9.80;;;;;;;2.64;88.83;98536.34;5029301;28;20198;-74
2021/03/08 07:44:23;;;;;;;19.17;9.97;;;;;;;2.85;89.71;98544.94;5026700;28;20210;-75
2021/03/08 07:46:51;;;;;;;14.33;7.73;;;;;;;2.93;88.95;98539.78;5027199;28;20206;-75
2021/03/08 07:49:32;;;;;;;16.63;8.80;;;;;;;3.23;86.52;98545.72;5029108;28;20288;-75
2021/03/08 07:52:07;;;;;;;15.83;9.30;;;;;;;2.94;88.17;98544.91;5026291;28;20202;-75
2021/03/08 07:54:52;;;;;;;16.87;9.47;;;;;;;3.23;87.08;98543.06;5026086;28;20206;-73
2021/03/08 07:57:19;;;;;;;15.57;7.83;;;;;;;3.48;83.72;98549.53;5025438;28;20733;-76
2021/03/08 07:59:46;;;;;;;17.83;9.47;;;;;;;3.16;85.15;98541.97;5025414;28;20221;-76
2021/03/08 08:02:13;;;;;;;17.07;9.23;;;;;;;3.65;83.51;98539.06;5031323;28;20203;-74
2021/03/08 08:04:41;;;;;;;15.57;8.63;;;;;;;3.64;80.79;98547.94;5024791;28;20207;-75
2021/03/08 08:07:09;;;;;;;15.83;8.40;;;;;;;3.79;80.99;98549.13;5026749;28;20203;-75
2021/03/08 08:09:40;;;;;;;14.73;8.43;;;;;;;3.37;83.59;98552.34;5027009;28;20222;-76
2021/03/08 08:12:10;;;;;;;13.50;8.50;;;;;;;3.28;82.65;98546.13;5028283;28;21433;-75
2021/03/08 08:14:40;;;;;;;15.60;8.67;;;;;;;3.34;83.92;98555.25;5027153;28;20206;-74
2021/03/08 08:17:08;;;;;;;13.90;8.50;;;;;;;3.91;78.56;98565.63;5029869;28;20242;-74
2021/03/08 08:19:37;;;;;;;17.87;8.77;;;;;;;4.38;76.17;98552.16;5025466;28;20233;-75
2021/03/08 08:22:05;;;;;;;16.90;8.77;;;;;;;3.67;80.32;98549.47;5029480;28;20279;-75
2021/03/08 08:24:32;;;;;;;15.43;9.00;;;;;;;3.48;81.46;98562.72;5026436;28;20199;-74
2021/03/08 08:26:59;;;;;;;15.27;8.97;;;;;;;3.43;84.33;98557.88;5025784;28;20208;-74
2021/03/08 08:29:27;;;;;;;15.20;8.97;;;;;;;3.48;83.03;98560.94;5025349;28;20241;-74
2021/03/08 08:31:58;;;;;;;20.67;8.63;;;;;;;4.33;77.80;98561.50;5027977;28;20220;-74
2021/03/08 08:34:32;;;;;;;16.27;9.10;;;;;;;4.38;75.52;98570.66;5025880;28;20203;-75
2021/03/08 08:37:13;;;;;;;16.07;9.43;;;;;;;5.19;71.08;98572.25;5027634;28;20225;-75
2021/03/08 08:39:41;;;;;;;19.50;8.90;;;;;;;5.24;69.45;98569.97;5025881;28;20301;-75
2021/03/08 08:42:19;;;;;;;12.00;8.27;;;;;;;4.94;71.97;98565.09;5028904;28;20218;-75
2021/03/08 08:44:47;;;;;;;22.17;9.20;;;;;;;5.11;72.25;98561.56;5031128;28;20344;-76
2021/03/08 08:47:26;;;;;;;17.47;8.43;;;;;;;4.79;73.84;98550.72;5032115;28;20307;-75
2021/03/08 08:49:55;;;;;;;16.53;9.30;;;;;;;4.39;76.27;98559.09;5026874;28;20237;-75
2021/03/08 08:52:48;;;;;;;16.13;8.27;;;;;;;5.19;70.52;98559.81;5030639;28;20218;-76
2021/03/08 08:55:16;;;;;;;19.40;9.70;;;;;;;4.44;72.26;98569.22;5027422;28;20212;-75
2021/03/08 08:58:16;;;;;;;16.33;8.73;;;;;;;4.49;73.79;98559.03;5024844;28;20198;-73
2021/03/08 09:00:43;;;;;;;16.03;8.37;;;;;;;4.96;69.48;98566.59;5029802;28;20207;-73
2021/03/08 09:03:17;;;;;;;16.00;8.10;;;;;;;5.32;69.47;98560.25;5029243;28;20755;-75
2021/03/08 09:05:44;;;;;;;12.33;7.83;;;;;;;5.03;69.75;98562.34;5024245;28;20670;-75
2021/03/08 09:08:32;;;;;;;14.87;8.80;;;;;;;4.98;69.56;98571.75;5027887;28;21039;-76
2021/03/08 09:10:59;;;;;;;16.63;8.13;;;;;;;5.17;70.66;98556.50;5037698;28;20230;-74
2021/03/08 09:13:28;;;;;;;13.83;8.20;;;;;;;5.19;69.27;98559.00;5046183;28;20253;-74
2021/03/08 09:15:56;;;;;;;17.10;9.17;;;;;;;5.94;66.50;98556.53;5041436;28;20683;-74
2021/03/08 09:18:36;;;;;;;14.50;9.03;;;;;;;5.86;63.20;98570.56;5042245;28;20245;-74
2021/03/08 09:21:20;;;;;;;12.53;7.77;;;;;;;5.34;65.27;98570.69;5034111;28;20271;-74
2021/03/08 09:23:48;;;;;;;17.50;8.43;;;;;;;5.21;67.84;98562.31;5030651;28;20221;-74
2021/03/08 09:26:16;;;;;;;14.43;8.43;;;;;;;5.39;67.99;98566.59;5030323;28;20703;-74
2021/03/08 09:28:50;;;;;;;12.17;7.33;;;;;;;5.93;63.81;98574.22;5033585;28;20233;-74
2021/03/08 09:31:23;;;;;;;13.27;8.10;;;;;;;5.97;65.80;98565.00;5032801;28;20202;-75
2021/03/08 09:33:50;;;;;;;13.30;8.30;;;;;;;6.09;62.84;98578.78;5030137;28;20723;-74
2021/03/08 09:36:19;;;;;;;16.73;8.50;;;;;;;5.56;67.90;98564.88;5030172;28;20664;-76
2021/03/08 09:38:47;;;;;;;14.10;8.37;;;;;;;5.49;66.86;98561.22;5028392;28;20227;-73
2021/03/08 09:41:14;;;;;;;13.40;8.43;;;;;;;5.46;67.98;98562.34;5028724;28;20585;-75
2021/03/08 09:43:41;;;;;;;17.87;8.70;;;;;;;5.74;65.27;98563.03;5032164;28;20608;-75
2021/03/08 09:46:09;;;;;;;14.90;8.60;;;;;;;5.82;65.38;98561.28;5030690;28;20207;-74
2021/03/08 09:48:37;;;;;;;15.13;8.13;;;;;;;5.53;65.80;98566.03;5034629;28;20218;-75
2021/03/08 09:51:06;;;;;;;12.47;7.97;;;;;;;6.11;64.79;98561.75;5025600;28;20210;-74
2021/03/08 09:53:38;;;;;;;15.30;7.97;;;;;;;6.32;62.52;98559.50;5029087;28;20205;-73
2021/03/08 09:56:07;;;;;;;13.23;7.87;;;;;;;6.20;60.89;98567.91;5026197;28;20208;-72
2021/03/08 09:58:35;;;;;;;14.37;8.23;;;;;;;6.09;61.19;98566.34;5029343;28;20705;-73
2021/03/08 10:01:12;;;;;;;14.93;8.53;;;;;;;6.08;61.60;98563.84;5027931;28;20200;-74
2021/03/08 10:03:39;;;;;;;17.33;7.13;;;;;;;6.40;60.72;98562.16;5032451;28;20214;-74
2021/03/08 10:06:06;;;;;;;15.43;8.67;;;;;;;6.97;57.10;98574.56;5028310;28;20211;-73
2021/03/08 10:08:33;;;;;;;14.33;8.07;;;;;;;6.54;58.42;98569.50;5026366;28;20611;-75
2021/03/08 10:11:00;;;;;;;13.50;7.43;;;;;;;7.03;57.38;98565.94;5026860;28;20209;-75
2021/03/08 10:13:28;;;;;;;11.47;7.77;;;;;;;6.29;58.69;98566.94;5033232;28;20214;-75
2021/03/08 10:15:56;;;;;;;10.67;7.07;;;;;;;6.36;58.36;98574.09;5031883;28;20201;-74
2021/03/08 10:18:25;;;;;;;12.97;7.60;;;;;;;6.83;56.85;98564.59;5028317;28;20230;-74
2021/03/08 10:20:56;;;;;;;14.73;7.20;;;;;;;7.19;55.73;98573.06;5029394;28;20209;-75
2021/03/08 10:23:25;;;;;;;16.73;7.10;;;;;;;7.05;55.09;98558.63;5031297;28;20677;-74
2021/03/08 10:25:53;;;;;;;9.63;6.50;;;;;;;6.89;54.97;98563.94;5027245;28;20210;-76
2021/03/08 10:28:20;;;;;;;16.30;6.87;;;;;;;8.25;51.32;98571.72;5029594;28;20259;-74
2021/03/08 10:30:49;;;;;;;11.17;6.87;;;;;;;6.78;53.39;98571.38;5029622;28;20238;-75
2021/03/08 10:33:18;;;;;;;12.50;7.20;;;;;;;6.91;54.63;98569.88;5031050;28;20209;-75
2021/03/08 10:35:47;;;;;;;9.10;6.10;;;;;;;7.50;52.71;98576.69;5025572;28;20206;-74
2021/03/08 10:38:14;;;;;;;12.13;6.77;;;;;;;7.02;53.89;98569.59;5038575;28;20252;-74
2021/03/08 10:40:41;;;;;;;11.63;7.17;;;;;;;7.02;53.61;98566.09;5024139;28;20288;-75
2021/03/08 10:43:09;;;;;;;10.37;6.33;;;;;;;7.43;53.22;98562.44;5028647;28;20215;-75
2021/03/08 10:45:37;;;;;;;11.77;6.97;;;;;;;7.20;52.20;98572.91;5029251;28;20214;-75
2021/03/08 10:48:09;;;;;;;9.87;6.17;;;;;;;8.19;49.80;98575.03;5031696;28;20219;-75
2021/03/08 10:50:45;;;;;;;11.50;6.30;;;;;;;8.02;48.88;98573.41;5024057;28;20236;-76
2021/03/08 10:53:13;;;;;;;10.43;5.90;;;;;;;7.94;46.55;98578.78;5023235;28;20271;-76
2021/03/08 10:55:40;;;;;;;11.20;5.87;;;;;;;7.68;48.07;98583.50;5025450;28;20260;-78
2021/03/08 10:58:08;;;;;;;9.33;6.40;;;;;;;7.66;49.33;98576.69;5030462;28;20236;-75
2021/03/08 11:00:35;;;;;;;11.47;5.83;;;;;;;8.08;46.84;98575.38;5037697;28;20304;-75
2021/03/08 11:03:02;;;;;;;9.13;5.27;;;;;;;8.82;44.39;98581.06;5028123;28;20206;-76
2021/03/08 11:05:31;;;;;;;11.53;5.93;;;;;;;8.36;45.39;98583.78;5026980;28;20211;-74
2021/03/08 11:07:59;;;;;;;9.60;5.50;;;;;;;7.32;47.23;98579.50;5023126;28;20746;-74
2021/03/08 11:10:34;;;;;;;8.57;5.13;;;;;;;7.57;46.39;98580.34;5026884;28;20580;-78
2021/03/08 11:13:05;;;;;;;8.57;5.40;;;;;;;8.01;45.45;98582.41;5021142;28;20242;-74
2021/03/08 11:15:32;;;;;;;8.33;5.33;;;;;;;8.68;43.77;98594.28;5031672;28;20214;-74
2021/03/08 11:18:00;;;;;;;10.33;5.63;;;;;;;7.80;43.96;98598.06;5028924;28;20209;-74
2021/03/08 11:20:31;;;;;;;9.90;5.47;;;;;;;8.07;45.24;98588.88;5030810;28;20236;-74
2021/03/08 11:23:03;;;;;;;7.87;5.53;;;;;;;8.50;45.04;98597.19;5029453;28;20294;-73
2021/03/08 11:25:50;;;;;;;17.87;6.53;;;;;;;8.05;45.34;98591.69;5028060;28;20259;-74
2021/03/08 11:28:43;;;;;;;8.00;5.63;;;;;;;7.94;46.07;98586.75;5026265;28;20253;-74
2021/03/08 11:31:28;;;;;;;10.97;5.67;;;;;;;8.14;45.28;98595.16;5026721;28;20336;-75
2021/03/08 11:34:02;;;;;;;10.30;5.70;;;;;;;7.84;45.13;98587.94;5026099;28;20207;-74
2021/03/08 11:36:39;;;;;;;12.50;6.77;;;;;;;7.60;46.32;98586.16;5026187;28;20893;-74
2021/03/08 11:39:11;;;;;;;19.17;6.60;;;;;;;7.91;47.34;98584.41;5029316;28;20223;-74
2021/03/08 11:41:48;;;;;;;10.83;6.40;;;;;;;8.18;44.62;98586.66;5027345;28;20677;-75
2021/03/08 11:44:17;;;;;;;11.03;6.10;;;;;;;8.96;42.64;98582.97;5022183;28;20212;-74
2021/03/08 11:46:50;;;;;;;8.37;5.57;;;;;;;8.53;44.26;98580.06;5025503;28;20236;-73